sensor_id;sensor_type;location;lat;lon;timestamp;temperature;humidity
35240;DHT22;21376;50.954;4.716;2023-02-28T00:00:25;-0.50;99.90
35240;DHT22;21376;50.954;4.716;2023-02-28T00:02:51;-0.60;99.90
35240;DHT22;21376;50.954;4.716;2023-02-28T00:05:23;-0.60;99.90
35240;DHT22;21376;50.954;4.716;2023-02-28T00:07:59;-0.70;99.90
35240;DHT22;21376;50.954;4.716;2023-02-28T00:10:30;-0.70;99.90
35240;DHT22;21376;50.954;4.716;2023-02-28T00:13:02;-0.80;99.90
35240;DHT22;21376;50.954;4.716;2023-02-28T00:15:32;-0.70;99.90
35240;DHT22;21376;50.954;4.716;2023-02-28T00:18:02;-0.80;99.90
35240;DHT22;21376;50.954;4.716;2023-02-28T00:20:31;-0.70;99.90
35240;DHT22;21376;50.954;4.716;2023-02-28T00:23:00;-0.60;99.90
35240;DHT22;21376;50.954;4.716;2023-02-28T00:25:36;-0.60;99.90
35240;DHT22;21376;50.954;4.716;2023-02-28T00:28:05;-0.40;99.90
35240;DHT22;21376;50.954;4.716;2023-02-28T00:30:39;-0.30;99.90
35240;DHT22;21376;50.954;4.716;2023-02-28T00:33:08;-0.50;99.90
35240;DHT22;21376;50.954;4.716;2023-02-28T00:35:34;-0.70;99.90
35240;DHT22;21376;50.954;4.716;2023-02-28T00:38:02;-0.70;99.90
35240;DHT22;21376;50.954;4.716;2023-02-28T00:40:45;-0.80;99.90
35240;DHT22;21376;50.954;4.716;2023-02-28T00:43:10;-0.80;99.90
35240;DHT22;21376;50.954;4.716;2023-02-28T00:45:37;-0.80;99.90
35240;DHT22;21376;50.954;4.716;2023-02-28T00:48:09;-0.70;99.90
35240;DHT22;21376;50.954;4.716;2023-02-28T00:50:38;-0.90;99.90
35240;DHT22;21376;50.954;4.716;2023-02-28T00:53:07;-1.00;99.90
35240;DHT22;21376;50.954;4.716;2023-02-28T00:55:36;-0.70;99.90
35240;DHT22;21376;50.954;4.716;2023-02-28T00:58:03;-0.50;99.90
35240;DHT22;21376;50.954;4.716;2023-02-28T01:00:33;-0.80;99.90
35240;DHT22;21376;50.954;4.716;2023-02-28T01:03:02;-0.60;99.90
35240;DHT22;21376;50.954;4.716;2023-02-28T01:05:31;-0.90;99.90
35240;DHT22;21376;50.954;4.716;2023-02-28T01:07:59;-1.00;99.90
35240;DHT22;21376;50.954;4.716;2023-02-28T01:10:32;-1.20;99.90
35240;DHT22;21376;50.954;4.716;2023-02-28T01:12:59;-1.40;99.90
35240;DHT22;21376;50.954;4.716;2023-02-28T01:15:28;-1.50;99.90
35240;DHT22;21376;50.954;4.716;2023-02-28T01:17:57;-1.60;99.90
35240;DHT22;21376;50.954;4.716;2023-02-28T01:20:25;-1.60;99.90
35240;DHT22;21376;50.954;4.716;2023-02-28T01:22:51;-1.70;99.90
35240;DHT22;21376;50.954;4.716;2023-02-28T01:25:19;-1.50;99.90
35240;DHT22;21376;50.954;4.716;2023-02-28T01:27:48;-1.70;99.90
35240;DHT22;21376;50.954;4.716;2023-02-28T01:30:17;-1.80;99.90
35240;DHT22;21376;50.954;4.716;2023-02-28T01:32:45;-1.80;99.90
35240;DHT22;21376;50.954;4.716;2023-02-28T01:35:14;-1.80;99.90
35240;DHT22;21376;50.954;4.716;2023-02-28T01:37:43;-1.80;99.90
35240;DHT22;21376;50.954;4.716;2023-02-28T01:40:18;-1.80;99.90
35240;DHT22;21376;50.954;4.716;2023-02-28T01:42:46;-1.60;99.90
35240;DHT22;21376;50.954;4.716;2023-02-28T01:45:31;-1.80;99.90
35240;DHT22;21376;50.954;4.716;2023-02-28T01:48:07;-1.80;99.90
35240;DHT22;21376;50.954;4.716;2023-02-28T01:50:39;-1.70;99.90
35240;DHT22;21376;50.954;4.716;2023-02-28T01:53:10;-1.60;99.90
35240;DHT22;21376;50.954;4.716;2023-02-28T01:55:42;-1.70;99.90
35240;DHT22;21376;50.954;4.716;2023-02-28T01:58:29;-1.50;99.90
35240;DHT22;21376;50.954;4.716;2023-02-28T02:00:58;-1.70;99.90
35240;DHT22;21376;50.954;4.716;2023-02-28T02:03:28;-1.40;99.90
35240;DHT22;21376;50.954;4.716;2023-02-28T02:05:57;-1.60;99.90
35240;DHT22;21376;50.954;4.716;2023-02-28T02:08:28;-1.40;99.90
35240;DHT22;21376;50.954;4.716;2023-02-28T02:11:00;-1.60;99.90
35240;DHT22;21376;50.954;4.716;2023-02-28T02:26:08;-1.90;99.90
35240;DHT22;21376;50.954;4.716;2023-02-28T02:37:55;-2.10;99.90
35240;DHT22;21376;50.954;4.716;2023-02-28T02:40:37;-2.20;99.90
35240;DHT22;21376;50.954;4.716;2023-02-28T02:43:26;-2.20;99.90
35240;DHT22;21376;50.954;4.716;2023-02-28T02:46:26;-2.30;99.90
35240;DHT22;21376;50.954;4.716;2023-02-28T02:48:58;-2.30;99.90
35240;DHT22;21376;50.954;4.716;2023-02-28T02:51:30;-2.20;99.90
35240;DHT22;21376;50.954;4.716;2023-02-28T02:54:08;-2.10;99.90
35240;DHT22;21376;50.954;4.716;2023-02-28T02:56:39;-2.40;99.90
35240;DHT22;21376;50.954;4.716;2023-02-28T02:59:11;-2.60;99.90
35240;DHT22;21376;50.954;4.716;2023-02-28T03:01:41;-2.50;99.90
35240;DHT22;21376;50.954;4.716;2023-02-28T03:04:11;-2.70;99.90
35240;DHT22;21376;50.954;4.716;2023-02-28T03:06:44;-2.70;99.90
35240;DHT22;21376;50.954;4.716;2023-02-28T03:09:13;-2.70;99.90
35240;DHT22;21376;50.954;4.716;2023-02-28T03:11:42;-2.60;99.90
35240;DHT22;21376;50.954;4.716;2023-02-28T03:20:27;-2.70;99.90
35240;DHT22;21376;50.954;4.716;2023-02-28T03:23:16;-2.80;99.90
35240;DHT22;21376;50.954;4.716;2023-02-28T03:26:02;-2.70;99.90
35240;DHT22;21376;50.954;4.716;2023-02-28T03:31:39;-2.90;99.90
35240;DHT22;21376;50.954;4.716;2023-02-28T03:34:29;-2.80;99.90
35240;DHT22;21376;50.954;4.716;2023-02-28T03:37:01;-2.80;99.90
35240;DHT22;21376;50.954;4.716;2023-02-28T03:39:44;-2.60;99.90
35240;DHT22;21376;50.954;4.716;2023-02-28T03:42:21;-2.60;99.90
35240;DHT22;21376;50.954;4.716;2023-02-28T03:45:08;-2.70;99.90
35240;DHT22;21376;50.954;4.716;2023-02-28T03:50:44;-2.70;99.90
35240;DHT22;21376;50.954;4.716;2023-02-28T03:53:37;-2.80;99.90
35240;DHT22;21376;50.954;4.716;2023-02-28T03:56:34;-2.70;99.90
35240;DHT22;21376;50.954;4.716;2023-02-28T03:59:42;-2.70;99.90
35240;DHT22;21376;50.954;4.716;2023-02-28T04:02:12;-2.90;99.90
35240;DHT22;21376;50.954;4.716;2023-02-28T04:04:41;-2.80;99.90
35240;DHT22;21376;50.954;4.716;2023-02-28T04:07:19;-2.80;99.90
35240;DHT22;21376;50.954;4.716;2023-02-28T04:09:49;-2.50;99.90
35240;DHT22;21376;50.954;4.716;2023-02-28T04:12:15;-2.10;99.90
35240;DHT22;21376;50.954;4.716;2023-02-28T04:14:42;-2.10;99.90
35240;DHT22;21376;50.954;4.716;2023-02-28T04:17:11;-1.80;99.90
35240;DHT22;21376;50.954;4.716;2023-02-28T04:19:40;-1.70;99.90
35240;DHT22;21376;50.954;4.716;2023-02-28T04:22:09;-2.00;99.90
35240;DHT22;21376;50.954;4.716;2023-02-28T04:24:35;-1.70;99.90
35240;DHT22;21376;50.954;4.716;2023-02-28T04:27:24;-1.90;99.90
35240;DHT22;21376;50.954;4.716;2023-02-28T04:29:53;-1.90;99.90
35240;DHT22;21376;50.954;4.716;2023-02-28T04:32:22;-2.00;99.90
35240;DHT22;21376;50.954;4.716;2023-02-28T04:34:51;-2.00;99.90
35240;DHT22;21376;50.954;4.716;2023-02-28T04:37:16;-2.00;99.90
35240;DHT22;21376;50.954;4.716;2023-02-28T04:39:42;-2.00;99.90
35240;DHT22;21376;50.954;4.716;2023-02-28T04:42:09;-1.80;99.90
35240;DHT22;21376;50.954;4.716;2023-02-28T04:44:41;-1.90;99.90
35240;DHT22;21376;50.954;4.716;2023-02-28T04:47:10;-2.20;99.90
35240;DHT22;21376;50.954;4.716;2023-02-28T04:49:36;-1.90;99.90
35240;DHT22;21376;50.954;4.716;2023-02-28T04:52:05;-1.90;99.90
35240;DHT22;21376;50.954;4.716;2023-02-28T04:54:35;-2.20;99.90
35240;DHT22;21376;50.954;4.716;2023-02-28T04:57:04;-1.90;99.90
35240;DHT22;21376;50.954;4.716;2023-02-28T04:59:41;-1.50;99.90
35240;DHT22;21376;50.954;4.716;2023-02-28T05:02:10;-1.60;99.90
35240;DHT22;21376;50.954;4.716;2023-02-28T05:04:36;-1.60;99.90
35240;DHT22;21376;50.954;4.716;2023-02-28T05:07:02;-1.50;99.90
35240;DHT22;21376;50.954;4.716;2023-02-28T05:09:31;-1.60;99.90
35240;DHT22;21376;50.954;4.716;2023-02-28T05:11:59;-1.60;99.90
35240;DHT22;21376;50.954;4.716;2023-02-28T05:14:28;-1.70;99.90
35240;DHT22;21376;50.954;4.716;2023-02-28T05:16:57;-1.70;99.90
35240;DHT22;21376;50.954;4.716;2023-02-28T05:19:28;-1.50;99.90
35240;DHT22;21376;50.954;4.716;2023-02-28T05:21:57;-1.50;99.90
35240;DHT22;21376;50.954;4.716;2023-02-28T05:24:26;-1.40;99.90
35240;DHT22;21376;50.954;4.716;2023-02-28T05:26:55;-1.40;99.90
35240;DHT22;21376;50.954;4.716;2023-02-28T05:29:27;-1.30;99.90
35240;DHT22;21376;50.954;4.716;2023-02-28T05:31:56;-1.00;99.90
35240;DHT22;21376;50.954;4.716;2023-02-28T05:34:22;-1.20;99.90
35240;DHT22;21376;50.954;4.716;2023-02-28T05:36:51;-1.20;99.90
35240;DHT22;21376;50.954;4.716;2023-02-28T05:39:42;-1.00;99.90
35240;DHT22;21376;50.954;4.716;2023-02-28T05:42:14;-1.10;99.90
35240;DHT22;21376;50.954;4.716;2023-02-28T05:47:42;-1.10;99.90
35240;DHT22;21376;50.954;4.716;2023-02-28T05:50:19;-0.90;99.90
35240;DHT22;21376;50.954;4.716;2023-02-28T05:52:50;-0.90;99.90
35240;DHT22;21376;50.954;4.716;2023-02-28T05:55:16;-0.50;99.90
35240;DHT22;21376;50.954;4.716;2023-02-28T05:57:44;-0.70;99.90
35240;DHT22;21376;50.954;4.716;2023-02-28T06:00:13;-0.40;99.90
35240;DHT22;21376;50.954;4.716;2023-02-28T06:02:43;-0.60;99.90
35240;DHT22;21376;50.954;4.716;2023-02-28T06:05:18;-0.50;99.90
35240;DHT22;21376;50.954;4.716;2023-02-28T06:07:47;-0.60;99.90
35240;DHT22;21376;50.954;4.716;2023-02-28T06:10:16;-0.40;99.90
35240;DHT22;21376;50.954;4.716;2023-02-28T06:12:45;-0.60;99.90
35240;DHT22;21376;50.954;4.716;2023-02-28T06:15:17;-0.60;99.90
35240;DHT22;21376;50.954;4.716;2023-02-28T06:17:45;-0.30;99.90
35240;DHT22;21376;50.954;4.716;2023-02-28T06:20:17;-0.10;99.90
35240;DHT22;21376;50.954;4.716;2023-02-28T06:22:44;-0.60;99.90
35240;DHT22;21376;50.954;4.716;2023-02-28T06:25:10;-0.70;99.90
35240;DHT22;21376;50.954;4.716;2023-02-28T06:27:36;-0.70;99.90
35240;DHT22;21376;50.954;4.716;2023-02-28T06:30:02;-0.70;99.90
35240;DHT22;21376;50.954;4.716;2023-02-28T06:32:32;-0.70;99.90
35240;DHT22;21376;50.954;4.716;2023-02-28T06:35:04;-0.70;99.90
35240;DHT22;21376;50.954;4.716;2023-02-28T06:37:31;-0.80;99.90
35240;DHT22;21376;50.954;4.716;2023-02-28T06:39:57;-0.70;99.90
35240;DHT22;21376;50.954;4.716;2023-02-28T06:42:24;-0.90;99.90
35240;DHT22;21376;50.954;4.716;2023-02-28T06:44:55;-0.60;99.90
35240;DHT22;21376;50.954;4.716;2023-02-28T06:47:21;-0.50;99.90
35240;DHT22;21376;50.954;4.716;2023-02-28T06:49:50;-0.40;99.90
35240;DHT22;21376;50.954;4.716;2023-02-28T06:52:18;-0.20;99.90
35240;DHT22;21376;50.954;4.716;2023-02-28T06:54:47;-0.20;99.90
35240;DHT22;21376;50.954;4.716;2023-02-28T06:57:31;-0.20;99.90
35240;DHT22;21376;50.954;4.716;2023-02-28T06:59:59;-0.20;99.90
35240;DHT22;21376;50.954;4.716;2023-02-28T07:02:36;-0.10;99.90
35240;DHT22;21376;50.954;4.716;2023-02-28T07:05:05;-0.40;99.90
35240;DHT22;21376;50.954;4.716;2023-02-28T07:07:34;-0.50;99.90
35240;DHT22;21376;50.954;4.716;2023-02-28T07:10:01;-0.40;99.90
35240;DHT22;21376;50.954;4.716;2023-02-28T07:12:45;-0.60;99.90
35240;DHT22;21376;50.954;4.716;2023-02-28T07:15:15;-0.40;99.90
35240;DHT22;21376;50.954;4.716;2023-02-28T07:17:41;-0.60;99.90
35240;DHT22;21376;50.954;4.716;2023-02-28T07:20:11;-0.50;99.90
35240;DHT22;21376;50.954;4.716;2023-02-28T07:22:39;0.30;99.90
35240;DHT22;21376;50.954;4.716;2023-02-28T07:25:06;0.70;99.90
35240;DHT22;21376;50.954;4.716;2023-02-28T07:27:37;1.90;99.90
35240;DHT22;21376;50.954;4.716;2023-02-28T07:30:09;3.30;99.90
35240;DHT22;21376;50.954;4.716;2023-02-28T07:32:35;5.00;99.90
35240;DHT22;21376;50.954;4.716;2023-02-28T07:35:03;5.70;99.90
35240;DHT22;21376;50.954;4.716;2023-02-28T07:37:37;7.20;99.90
35240;DHT22;21376;50.954;4.716;2023-02-28T07:40:05;8.40;99.90
35240;DHT22;21376;50.954;4.716;2023-02-28T07:42:37;9.80;99.90
35240;DHT22;21376;50.954;4.716;2023-02-28T07:45:07;10.60;99.90
35240;DHT22;21376;50.954;4.716;2023-02-28T07:47:37;11.30;99.90
35240;DHT22;21376;50.954;4.716;2023-02-28T07:50:09;11.50;99.90
35240;DHT22;21376;50.954;4.716;2023-02-28T07:52:42;11.70;99.90
35240;DHT22;21376;50.954;4.716;2023-02-28T07:55:10;12.30;99.90
35240;DHT22;21376;50.954;4.716;2023-02-28T07:57:40;13.00;97.80
35240;DHT22;21376;50.954;4.716;2023-02-28T08:00:13;12.70;96.90
35240;DHT22;21376;50.954;4.716;2023-02-28T08:02:40;13.10;95.70
35240;DHT22;21376;50.954;4.716;2023-02-28T08:05:06;12.70;95.50
35240;DHT22;21376;50.954;4.716;2023-02-28T08:07:39;12.60;95.50
35240;DHT22;21376;50.954;4.716;2023-02-28T08:10:25;12.40;94.70
35240;DHT22;21376;50.954;4.716;2023-02-28T08:12:51;12.30;95.20
35240;DHT22;21376;50.954;4.716;2023-02-28T08:15:16;12.70;94.30
35240;DHT22;21376;50.954;4.716;2023-02-28T08:17:42;12.60;95.40
35240;DHT22;21376;50.954;4.716;2023-02-28T08:20:08;13.60;93.40
35240;DHT22;21376;50.954;4.716;2023-02-28T08:22:35;13.70;91.40
35240;DHT22;21376;50.954;4.716;2023-02-28T08:25:01;13.60;91.60
35240;DHT22;21376;50.954;4.716;2023-02-28T08:27:27;13.60;90.30
35240;DHT22;21376;50.954;4.716;2023-02-28T08:29:53;13.50;90.00
35240;DHT22;21376;50.954;4.716;2023-02-28T08:32:23;13.90;90.80
35240;DHT22;21376;50.954;4.716;2023-02-28T08:34:49;14.30;87.60
35240;DHT22;21376;50.954;4.716;2023-02-28T08:37:15;14.20;85.20
35240;DHT22;21376;50.954;4.716;2023-02-28T08:39:44;13.60;87.00
35240;DHT22;21376;50.954;4.716;2023-02-28T08:42:12;14.20;85.60
35240;DHT22;21376;50.954;4.716;2023-02-28T08:44:38;14.50;83.20
35240;DHT22;21376;50.954;4.716;2023-02-28T08:47:06;13.20;83.00
35240;DHT22;21376;50.954;4.716;2023-02-28T08:49:37;13.00;86.50
35240;DHT22;21376;50.954;4.716;2023-02-28T08:52:04;13.90;83.80
35240;DHT22;21376;50.954;4.716;2023-02-28T08:54:33;14.80;81.30
35240;DHT22;21376;50.954;4.716;2023-02-28T08:57:03;15.80;78.60
35240;DHT22;21376;50.954;4.716;2023-02-28T08:59:30;14.90;77.60
35240;DHT22;21376;50.954;4.716;2023-02-28T09:01:58;15.40;76.20
35240;DHT22;21376;50.954;4.716;2023-02-28T09:04:24;14.80;75.60
35240;DHT22;21376;50.954;4.716;2023-02-28T09:06:52;15.30;76.10
35240;DHT22;21376;50.954;4.716;2023-02-28T09:09:20;15.30;73.50
35240;DHT22;21376;50.954;4.716;2023-02-28T09:11:52;14.40;76.50
35240;DHT22;21376;50.954;4.716;2023-02-28T09:14:26;15.20;74.80
35240;DHT22;21376;50.954;4.716;2023-02-28T09:16:51;15.10;72.60
35240;DHT22;21376;50.954;4.716;2023-02-28T09:19:18;15.20;72.30
35240;DHT22;21376;50.954;4.716;2023-02-28T09:21:56;15.90;70.60
35240;DHT22;21376;50.954;4.716;2023-02-28T09:24:23;15.60;69.40
35240;DHT22;21376;50.954;4.716;2023-02-28T09:26:52;15.70;70.30
35240;DHT22;21376;50.954;4.716;2023-02-28T09:29:36;16.30;67.90
35240;DHT22;21376;50.954;4.716;2023-02-28T09:32:03;16.30;66.30
35240;DHT22;21376;50.954;4.716;2023-02-28T09:34:31;15.60;68.50
35240;DHT22;21376;50.954;4.716;2023-02-28T09:37:08;15.80;67.90
35240;DHT22;21376;50.954;4.716;2023-02-28T09:39:34;15.70;67.90
35240;DHT22;21376;50.954;4.716;2023-02-28T09:42:18;15.80;65.20
35240;DHT22;21376;50.954;4.716;2023-02-28T09:44:48;16.20;67.10
35240;DHT22;21376;50.954;4.716;2023-02-28T09:47:29;16.70;63.40
35240;DHT22;21376;50.954;4.716;2023-02-28T09:50:29;17.50;61.30
35240;DHT22;21376;50.954;4.716;2023-02-28T09:52:57;18.00;59.50
35240;DHT22;21376;50.954;4.716;2023-02-28T09:55:30;18.10;57.10
35240;DHT22;21376;50.954;4.716;2023-02-28T09:57:57;18.00;56.30
35240;DHT22;21376;50.954;4.716;2023-02-28T10:00:39;16.80;56.40
35240;DHT22;21376;50.954;4.716;2023-02-28T10:06:28;16.20;57.30
35240;DHT22;21376;50.954;4.716;2023-02-28T10:09:06;15.30;57.60
35240;DHT22;21376;50.954;4.716;2023-02-28T10:11:40;14.30;60.20
35240;DHT22;21376;50.954;4.716;2023-02-28T10:14:29;13.50;59.50
35240;DHT22;21376;50.954;4.716;2023-02-28T10:17:11;13.50;60.00
35240;DHT22;21376;50.954;4.716;2023-02-28T10:20:17;13.70;62.10
35240;DHT22;21376;50.954;4.716;2023-02-28T10:25:29;14.70;58.80
35240;DHT22;21376;50.954;4.716;2023-02-28T10:28:16;15.10;58.20
35240;DHT22;21376;50.954;4.716;2023-02-28T10:30:51;14.40;57.70
35240;DHT22;21376;50.954;4.716;2023-02-28T10:33:34;14.60;57.90
35240;DHT22;21376;50.954;4.716;2023-02-28T10:36:02;14.60;57.10
35240;DHT22;21376;50.954;4.716;2023-02-28T10:38:38;12.80;59.60
35240;DHT22;21376;50.954;4.716;2023-02-28T10:41:17;12.40;62.30
35240;DHT22;21376;50.954;4.716;2023-02-28T10:43:47;13.70;61.10
35240;DHT22;21376;50.954;4.716;2023-02-28T10:46:18;14.40;58.90
35240;DHT22;21376;50.954;4.716;2023-02-28T10:49:00;12.50;58.40
35240;DHT22;21376;50.954;4.716;2023-02-28T10:51:34;10.70;62.40
35240;DHT22;21376;50.954;4.716;2023-02-28T10:54:02;10.50;63.20
35240;DHT22;21376;50.954;4.716;2023-02-28T10:56:32;9.80;68.30
35240;DHT22;21376;50.954;4.716;2023-02-28T10:59:22;10.70;65.50
35240;DHT22;21376;50.954;4.716;2023-02-28T11:01:51;12.00;62.00
35240;DHT22;21376;50.954;4.716;2023-02-28T11:07:13;11.30;63.20
35240;DHT22;21376;50.954;4.716;2023-02-28T11:09:44;10.10;65.90
35240;DHT22;21376;50.954;4.716;2023-02-28T11:14:56;10.00;66.00
35240;DHT22;21376;50.954;4.716;2023-02-28T11:17:28;11.60;65.80
35240;DHT22;21376;50.954;4.716;2023-02-28T11:20:06;11.90;64.00
35240;DHT22;21376;50.954;4.716;2023-02-28T11:22:39;12.50;60.80
35240;DHT22;21376;50.954;4.716;2023-02-28T11:25:34;13.00;60.00
35240;DHT22;21376;50.954;4.716;2023-02-28T11:28:03;12.10;60.60
35240;DHT22;21376;50.954;4.716;2023-02-28T11:30:41;11.80;62.80
35240;DHT22;21376;50.954;4.716;2023-02-28T11:33:32;11.50;62.20
35240;DHT22;21376;50.954;4.716;2023-02-28T11:36:10;12.00;63.00
35240;DHT22;21376;50.954;4.716;2023-02-28T11:38:59;13.00;61.30
35240;DHT22;21376;50.954;4.716;2023-02-28T11:53:10;14.20;59.20
35240;DHT22;21376;50.954;4.716;2023-02-28T11:55:42;12.80;57.30
35240;DHT22;21376;50.954;4.716;2023-02-28T12:07:16;13.00;57.00
35240;DHT22;21376;50.954;4.716;2023-02-28T12:10:21;12.80;59.20
35240;DHT22;21376;50.954;4.716;2023-02-28T12:13:07;11.80;57.10
35240;DHT22;21376;50.954;4.716;2023-02-28T12:25:09;12.60;57.90
35240;DHT22;21376;50.954;4.716;2023-02-28T12:27:43;12.70;58.20
35240;DHT22;21376;50.954;4.716;2023-02-28T12:30:30;12.60;58.20
35240;DHT22;21376;50.954;4.716;2023-02-28T12:33:03;13.00;57.70
35240;DHT22;21376;50.954;4.716;2023-02-28T12:35:58;12.30;56.80
35240;DHT22;21376;50.954;4.716;2023-02-28T12:38:29;11.60;58.00
35240;DHT22;21376;50.954;4.716;2023-02-28T12:41:15;11.50;59.40
35240;DHT22;21376;50.954;4.716;2023-02-28T12:44:17;12.00;58.90
35240;DHT22;21376;50.954;4.716;2023-02-28T12:46:49;12.70;58.70
35240;DHT22;21376;50.954;4.716;2023-02-28T12:50:02;12.70;59.10
35240;DHT22;21376;50.954;4.716;2023-02-28T13:10:00;12.90;56.40
35240;DHT22;21376;50.954;4.716;2023-02-28T13:12:30;11.00;58.70
35240;DHT22;21376;50.954;4.716;2023-02-28T13:15:18;10.30;61.50
35240;DHT22;21376;50.954;4.716;2023-02-28T13:17:58;10.60;62.20
35240;DHT22;21376;50.954;4.716;2023-02-28T13:20:35;10.60;61.60
35240;DHT22;21376;50.954;4.716;2023-02-28T13:23:36;10.70;60.00
35240;DHT22;21376;50.954;4.716;2023-02-28T13:26:12;10.70;60.50
35240;DHT22;21376;50.954;4.716;2023-02-28T13:31:28;10.00;62.10
35240;DHT22;21376;50.954;4.716;2023-02-28T13:34:14;10.20;63.30
35240;DHT22;21376;50.954;4.716;2023-02-28T13:36:40;9.80;61.80
35240;DHT22;21376;50.954;4.716;2023-02-28T13:50:50;7.90;69.50
35240;DHT22;21376;50.954;4.716;2023-02-28T13:53:29;7.80;67.20
35240;DHT22;21376;50.954;4.716;2023-02-28T13:56:50;7.30;68.80
35240;DHT22;21376;50.954;4.716;2023-02-28T14:05:22;6.90;69.50
35240;DHT22;21376;50.954;4.716;2023-02-28T14:11:33;7.20;71.10
35240;DHT22;21376;50.954;4.716;2023-02-28T14:14:00;7.40;72.70
35240;DHT22;21376;50.954;4.716;2023-02-28T14:19:22;7.30;71.30
35240;DHT22;21376;50.954;4.716;2023-02-28T14:35:50;6.80;74.20
35240;DHT22;21376;50.954;4.716;2023-02-28T14:38:25;6.70;73.70
35240;DHT22;21376;50.954;4.716;2023-02-28T14:41:00;6.60;76.20
35240;DHT22;21376;50.954;4.716;2023-02-28T14:43:33;6.90;76.00
35240;DHT22;21376;50.954;4.716;2023-02-28T14:46:07;6.70;75.00
35240;DHT22;21376;50.954;4.716;2023-02-28T14:48:36;6.60;75.30
35240;DHT22;21376;50.954;4.716;2023-02-28T14:51:09;6.40;75.70
35240;DHT22;21376;50.954;4.716;2023-02-28T14:53:40;6.60;77.10
35240;DHT22;21376;50.954;4.716;2023-02-28T14:56:24;6.30;76.90
35240;DHT22;21376;50.954;4.716;2023-02-28T14:58:59;6.40;76.60
35240;DHT22;21376;50.954;4.716;2023-02-28T15:01:28;6.60;77.20
35240;DHT22;21376;50.954;4.716;2023-02-28T15:04:05;6.80;74.80
35240;DHT22;21376;50.954;4.716;2023-02-28T15:06:33;6.60;76.50
35240;DHT22;21376;50.954;4.716;2023-02-28T15:09:17;6.60;77.70
35240;DHT22;21376;50.954;4.716;2023-02-28T15:11:48;6.60;76.10
35240;DHT22;21376;50.954;4.716;2023-02-28T15:14:26;6.70;75.90
35240;DHT22;21376;50.954;4.716;2023-02-28T15:17:19;6.60;76.70
35240;DHT22;21376;50.954;4.716;2023-02-28T15:19:52;6.50;77.20
35240;DHT22;21376;50.954;4.716;2023-02-28T15:22:24;6.40;78.00
35240;DHT22;21376;50.954;4.716;2023-02-28T15:25:00;6.10;78.10
35240;DHT22;21376;50.954;4.716;2023-02-28T15:27:32;6.20;79.50
35240;DHT22;21376;50.954;4.716;2023-02-28T15:30:01;6.30;79.00
35240;DHT22;21376;50.954;4.716;2023-02-28T15:32:37;6.40;78.90
35240;DHT22;21376;50.954;4.716;2023-02-28T15:35:30;6.10;79.50
35240;DHT22;21376;50.954;4.716;2023-02-28T15:40:42;6.00;79.50
35240;DHT22;21376;50.954;4.716;2023-02-28T15:43:16;6.00;79.20
35240;DHT22;21376;50.954;4.716;2023-02-28T15:45:47;6.00;79.20
35240;DHT22;21376;50.954;4.716;2023-02-28T15:48:31;5.90;80.20
35240;DHT22;21376;50.954;4.716;2023-02-28T15:51:20;6.10;80.40
35240;DHT22;21376;50.954;4.716;2023-02-28T15:54:01;6.30;80.10
35240;DHT22;21376;50.954;4.716;2023-02-28T15:56:33;6.30;79.40
35240;DHT22;21376;50.954;4.716;2023-02-28T15:59:17;5.80;80.50
35240;DHT22;21376;50.954;4.716;2023-02-28T16:02:18;5.80;81.00
35240;DHT22;21376;50.954;4.716;2023-02-28T16:07:40;5.90;81.20
35240;DHT22;21376;50.954;4.716;2023-02-28T16:10:10;6.10;82.40
35240;DHT22;21376;50.954;4.716;2023-02-28T16:12:40;5.90;82.10
35240;DHT22;21376;50.954;4.716;2023-02-28T16:15:26;6.10;82.90
35240;DHT22;21376;50.954;4.716;2023-02-28T16:17:56;5.60;82.00
35240;DHT22;21376;50.954;4.716;2023-02-28T16:20:30;5.50;82.50
35240;DHT22;21376;50.954;4.716;2023-02-28T16:22:57;5.60;82.00
35240;DHT22;21376;50.954;4.716;2023-02-28T16:25:36;5.80;83.80
35240;DHT22;21376;50.954;4.716;2023-02-28T16:28:20;5.60;82.00
35240;DHT22;21376;50.954;4.716;2023-02-28T16:30:54;5.30;82.60
35240;DHT22;21376;50.954;4.716;2023-02-28T16:33:21;5.30;83.70
35240;DHT22;21376;50.954;4.716;2023-02-28T16:35:46;5.30;83.40
35240;DHT22;21376;50.954;4.716;2023-02-28T16:38:15;5.30;84.40
35240;DHT22;21376;50.954;4.716;2023-02-28T16:40:41;5.40;83.80
35240;DHT22;21376;50.954;4.716;2023-02-28T16:43:19;5.30;83.90
35240;DHT22;21376;50.954;4.716;2023-02-28T16:45:46;5.30;84.50
35240;DHT22;21376;50.954;4.716;2023-02-28T16:48:18;5.30;84.90
35240;DHT22;21376;50.954;4.716;2023-02-28T16:50:45;5.30;85.70
35240;DHT22;21376;50.954;4.716;2023-02-28T16:53:11;5.40;84.90
35240;DHT22;21376;50.954;4.716;2023-02-28T16:55:39;5.20;85.50
35240;DHT22;21376;50.954;4.716;2023-02-28T16:58:05;5.10;86.60
35240;DHT22;21376;50.954;4.716;2023-02-28T17:00:32;5.20;86.60
35240;DHT22;21376;50.954;4.716;2023-02-28T17:03:01;5.40;86.30
35240;DHT22;21376;50.954;4.716;2023-02-28T17:05:34;5.10;86.80
35240;DHT22;21376;50.954;4.716;2023-02-28T17:08:03;5.10;86.40
35240;DHT22;21376;50.954;4.716;2023-02-28T17:10:32;5.10;87.80
35240;DHT22;21376;50.954;4.716;2023-02-28T17:13:10;5.00;87.70
35240;DHT22;21376;50.954;4.716;2023-02-28T17:15:40;5.10;88.70
35240;DHT22;21376;50.954;4.716;2023-02-28T17:18:06;5.00;88.50
35240;DHT22;21376;50.954;4.716;2023-02-28T17:23:49;5.00;88.70
35240;DHT22;21376;50.954;4.716;2023-02-28T17:26:17;4.70;89.60
35240;DHT22;21376;50.954;4.716;2023-02-28T17:29:09;4.80;89.70
35240;DHT22;21376;50.954;4.716;2023-02-28T17:31:57;4.60;89.80
35240;DHT22;21376;50.954;4.716;2023-02-28T17:34:25;4.70;90.10
35240;DHT22;21376;50.954;4.716;2023-02-28T17:36:51;4.60;90.20
35240;DHT22;21376;50.954;4.716;2023-02-28T17:39:19;4.70;90.10
35240;DHT22;21376;50.954;4.716;2023-02-28T17:41:55;4.60;90.30
35240;DHT22;21376;50.954;4.716;2023-02-28T17:44:24;4.60;90.20
35240;DHT22;21376;50.954;4.716;2023-02-28T17:46:51;4.50;90.50
35240;DHT22;21376;50.954;4.716;2023-02-28T17:49:19;4.50;90.20
35240;DHT22;21376;50.954;4.716;2023-02-28T17:51:46;4.60;90.70
35240;DHT22;21376;50.954;4.716;2023-02-28T17:54:13;4.40;91.00
35240;DHT22;21376;50.954;4.716;2023-02-28T17:56:58;4.30;91.20
35240;DHT22;21376;50.954;4.716;2023-02-28T17:59:27;4.20;91.40
35240;DHT22;21376;50.954;4.716;2023-02-28T18:02:02;4.00;92.10
35240;DHT22;21376;50.954;4.716;2023-02-28T18:04:32;4.00;92.30
35240;DHT22;21376;50.954;4.716;2023-02-28T18:07:00;3.80;92.90
35240;DHT22;21376;50.954;4.716;2023-02-28T18:09:29;3.90;93.40
35240;DHT22;21376;50.954;4.716;2023-02-28T18:11:59;3.60;93.70
35240;DHT22;21376;50.954;4.716;2023-02-28T18:14:31;3.70;94.80
35240;DHT22;21376;50.954;4.716;2023-02-28T18:16:59;3.40;95.20
35240;DHT22;21376;50.954;4.716;2023-02-28T18:19:27;3.60;95.90
35240;DHT22;21376;50.954;4.716;2023-02-28T18:21:58;3.40;96.30
35240;DHT22;21376;50.954;4.716;2023-02-28T18:24:27;3.30;97.50
35240;DHT22;21376;50.954;4.716;2023-02-28T18:26:57;3.10;98.20
35240;DHT22;21376;50.954;4.716;2023-02-28T18:29:27;2.80;98.60
35240;DHT22;21376;50.954;4.716;2023-02-28T18:31:54;2.70;98.90
35240;DHT22;21376;50.954;4.716;2023-02-28T18:34:23;2.70;99.90
35240;DHT22;21376;50.954;4.716;2023-02-28T18:36:51;2.50;99.90